sensor_id;sensor_type;location;lat;lon;timestamp;P1;durP1;ratioP1;P2;durP2;ratioP2
14080;SDS011;7116;52.152;5.392;2024-03-23T00:55:29;14.35;;;7.00;;
14080;SDS011;7116;52.152;5.392;2024-03-23T00:57:54;19.57;;;7.07;;
14080;SDS011;7116;52.152;5.392;2024-03-23T01:00:20;18.10;;;7.67;;
14080;SDS011;7116;52.152;5.392;2024-03-23T01:02:45;19.65;;;7.20;;
14080;SDS011;7116;52.152;5.392;2024-03-23T01:05:11;21.90;;;7.60;;
14080;SDS011;7116;52.152;5.392;2024-03-23T01:07:37;21.85;;;7.30;;
14080;SDS011;7116;52.152;5.392;2024-03-23T01:10:02;22.80;;;7.93;;
14080;SDS011;7116;52.152;5.392;2024-03-23T01:12:28;22.05;;;7.72;;
14080;SDS011;7116;52.152;5.392;2024-03-23T01:14:54;25.90;;;7.30;;
14080;SDS011;7116;52.152;5.392;2024-03-23T01:17:19;27.40;;;7.27;;
14080;SDS011;7116;52.152;5.392;2024-03-23T01:19:44;22.50;;;8.57;;
14080;SDS011;7116;52.152;5.392;2024-03-23T01:22:10;19.77;;;7.22;;
14080;SDS011;7116;52.152;5.392;2024-03-23T01:24:35;21.25;;;7.03;;
14080;SDS011;7116;52.152;5.392;2024-03-23T01:27:01;27.45;;;7.70;;
14080;SDS011;7116;52.152;5.392;2024-03-23T01:29:30;19.50;;;6.95;;
14080;SDS011;7116;52.152;5.392;2024-03-23T01:31:56;26.15;;;7.85;;
14080;SDS011;7116;52.152;5.392;2024-03-23T01:34:22;19.33;;;7.83;;
14080;SDS011;7116;52.152;5.392;2024-03-23T01:36:50;23.58;;;7.55;;
14080;SDS011;7116;52.152;5.392;2024-03-23T01:39:17;21.57;;;7.70;;
14080;SDS011;7116;52.152;5.392;2024-03-23T01:41:42;18.73;;;7.60;;
14080;SDS011;7116;52.152;5.392;2024-03-23T01:44:08;22.73;;;7.68;;
14080;SDS011;7116;52.152;5.392;2024-03-23T01:46:37;20.90;;;7.23;;
14080;SDS011;7116;52.152;5.392;2024-03-23T01:49:04;17.73;;;7.22;;
14080;SDS011;7116;52.152;5.392;2024-03-23T01:51:29;27.35;;;7.70;;
14080;SDS011;7116;52.152;5.392;2024-03-23T01:53:55;19.43;;;8.10;;
14080;SDS011;7116;52.152;5.392;2024-03-23T01:56:21;25.55;;;7.40;;
14080;SDS011;7116;52.152;5.392;2024-03-23T01:58:47;21.23;;;6.63;;
14080;SDS011;7116;52.152;5.392;2024-03-23T02:01:12;14.98;;;6.53;;
14080;SDS011;7116;52.152;5.392;2024-03-23T02:03:38;19.47;;;6.37;;
14080;SDS011;7116;52.152;5.392;2024-03-23T02:06:04;19.60;;;7.10;;
14080;SDS011;7116;52.152;5.392;2024-03-23T02:08:32;20.40;;;6.57;;
14080;SDS011;7116;52.152;5.392;2024-03-23T02:10:57;21.47;;;6.90;;
14080;SDS011;7116;52.152;5.392;2024-03-23T02:13:23;18.27;;;6.93;;
14080;SDS011;7116;52.152;5.392;2024-03-23T02:15:49;18.85;;;5.90;;
14080;SDS011;7116;52.152;5.392;2024-03-23T02:18:15;23.03;;;6.70;;
14080;SDS011;7116;52.152;5.392;2024-03-23T02:20:40;20.63;;;6.17;;
14080;SDS011;7116;52.152;5.392;2024-03-23T02:23:05;17.80;;;6.00;;
14080;SDS011;7116;52.152;5.392;2024-03-23T02:25:31;24.20;;;6.55;;
14080;SDS011;7116;52.152;5.392;2024-03-23T02:27:57;19.03;;;6.10;;
14080;SDS011;7116;52.152;5.392;2024-03-23T02:30:24;21.40;;;6.32;;
14080;SDS011;7116;52.152;5.392;2024-03-23T02:32:49;26.45;;;6.75;;
14080;SDS011;7116;52.152;5.392;2024-03-23T02:35:16;22.88;;;6.70;;
14080;SDS011;7116;52.152;5.392;2024-03-23T02:37:41;20.00;;;5.75;;
14080;SDS011;7116;52.152;5.392;2024-03-23T02:40:06;17.70;;;6.10;;
14080;SDS011;7116;52.152;5.392;2024-03-23T02:42:32;17.93;;;5.53;;
14080;SDS011;7116;52.152;5.392;2024-03-23T02:44:58;15.87;;;5.57;;
14080;SDS011;7116;52.152;5.392;2024-03-23T02:47:23;18.02;;;5.60;;
14080;SDS011;7116;52.152;5.392;2024-03-23T02:49:49;21.17;;;5.83;;
14080;SDS011;7116;52.152;5.392;2024-03-23T02:52:14;24.00;;;5.63;;
14080;SDS011;7116;52.152;5.392;2024-03-23T02:54:40;21.98;;;5.72;;
14080;SDS011;7116;52.152;5.392;2024-03-23T02:57:07;21.20;;;4.97;;
14080;SDS011;7116;52.152;5.392;2024-03-23T02:59:38;20.42;;;5.63;;
14080;SDS011;7116;52.152;5.392;2024-03-23T03:02:04;15.45;;;5.00;;
14080;SDS011;7116;52.152;5.392;2024-03-23T03:04:30;25.17;;;6.53;;
14080;SDS011;7116;52.152;5.392;2024-03-23T03:06:56;20.00;;;5.70;;
14080;SDS011;7116;52.152;5.392;2024-03-23T03:09:22;19.63;;;5.87;;
14080;SDS011;7116;52.152;5.392;2024-03-23T03:11:48;17.55;;;4.70;;
14080;SDS011;7116;52.152;5.392;2024-03-23T03:14:13;17.60;;;5.93;;
14080;SDS011;7116;52.152;5.392;2024-03-23T03:16:39;15.50;;;5.23;;
14080;SDS011;7116;52.152;5.392;2024-03-23T03:19:04;16.60;;;5.25;;
14080;SDS011;7116;52.152;5.392;2024-03-23T03:21:31;16.60;;;5.05;;
14080;SDS011;7116;52.152;5.392;2024-03-23T03:23:57;21.10;;;6.10;;
14080;SDS011;7116;52.152;5.392;2024-03-23T03:26:23;16.83;;;5.00;;
14080;SDS011;7116;52.152;5.392;2024-03-23T03:28:48;13.00;;;4.78;;
14080;SDS011;7116;52.152;5.392;2024-03-23T03:31:14;18.27;;;4.90;;
14080;SDS011;7116;52.152;5.392;2024-03-23T03:33:40;20.65;;;4.68;;
14080;SDS011;7116;52.152;5.392;2024-03-23T03:36:06;19.27;;;5.35;;
14080;SDS011;7116;52.152;5.392;2024-03-23T03:38:31;15.23;;;4.33;;
14080;SDS011;7116;52.152;5.392;2024-03-23T03:40:57;16.25;;;4.50;;
14080;SDS011;7116;52.152;5.392;2024-03-23T03:43:24;12.90;;;4.00;;
14080;SDS011;7116;52.152;5.392;2024-03-23T03:45:52;14.27;;;4.05;;
14080;SDS011;7116;52.152;5.392;2024-03-23T03:48:21;20.70;;;4.13;;
14080;SDS011;7116;52.152;5.392;2024-03-23T03:50:47;17.40;;;4.18;;
14080;SDS011;7116;52.152;5.392;2024-03-23T03:53:13;16.42;;;4.55;;
14080;SDS011;7116;52.152;5.392;2024-03-23T03:55:38;11.47;;;4.13;;
14080;SDS011;7116;52.152;5.392;2024-03-23T03:58:04;17.47;;;3.90;;
14080;SDS011;7116;52.152;5.392;2024-03-23T04:00:29;16.20;;;3.70;;
14080;SDS011;7116;52.152;5.392;2024-03-23T04:02:55;19.45;;;3.95;;
14080;SDS011;7116;52.152;5.392;2024-03-23T04:05:20;12.97;;;4.03;;
14080;SDS011;7116;52.152;5.392;2024-03-23T04:07:45;16.93;;;4.50;;
14080;SDS011;7116;52.152;5.392;2024-03-23T04:10:11;14.63;;;4.13;;
14080;SDS011;7116;52.152;5.392;2024-03-23T04:12:36;15.17;;;4.70;;
14080;SDS011;7116;52.152;5.392;2024-03-23T04:15:02;16.47;;;4.87;;
14080;SDS011;7116;52.152;5.392;2024-03-23T04:17:29;18.65;;;4.97;;
14080;SDS011;7116;52.152;5.392;2024-03-23T04:19:57;15.95;;;4.50;;
14080;SDS011;7116;52.152;5.392;2024-03-23T04:22:22;17.17;;;4.50;;
14080;SDS011;7116;52.152;5.392;2024-03-23T04:24:49;19.85;;;4.78;;
14080;SDS011;7116;52.152;5.392;2024-03-23T04:27:14;13.73;;;4.85;;
14080;SDS011;7116;52.152;5.392;2024-03-23T04:29:40;11.68;;;5.13;;
14080;SDS011;7116;52.152;5.392;2024-03-23T04:32:05;14.60;;;5.43;;
14080;SDS011;7116;52.152;5.392;2024-03-23T04:34:31;13.95;;;5.88;;
14080;SDS011;7116;52.152;5.392;2024-03-23T04:36:58;15.02;;;4.90;;
14080;SDS011;7116;52.152;5.392;2024-03-23T04:39:24;18.70;;;5.60;;
14080;SDS011;7116;52.152;5.392;2024-03-23T04:41:49;13.93;;;5.63;;
14080;SDS011;7116;52.152;5.392;2024-03-23T04:44:17;14.13;;;5.05;;
14080;SDS011;7116;52.152;5.392;2024-03-23T04:46:42;12.85;;;4.15;;
14080;SDS011;7116;52.152;5.392;2024-03-23T04:49:08;12.47;;;5.80;;
14080;SDS011;7116;52.152;5.392;2024-03-23T04:51:36;15.75;;;4.53;;
14080;SDS011;7116;52.152;5.392;2024-03-23T04:54:03;19.17;;;6.25;;
14080;SDS011;7116;52.152;5.392;2024-03-23T04:56:29;15.40;;;4.83;;
14080;SDS011;7116;52.152;5.392;2024-03-23T04:58:55;12.18;;;5.72;;
14080;SDS011;7116;52.152;5.392;2024-03-23T05:01:26;17.73;;;5.13;;
14080;SDS011;7116;52.152;5.392;2024-03-23T05:03:54;12.32;;;4.68;;
14080;SDS011;7116;52.152;5.392;2024-03-23T05:06:23;14.55;;;4.82;;
14080;SDS011;7116;52.152;5.392;2024-03-23T05:08:51;16.38;;;4.75;;
14080;SDS011;7116;52.152;5.392;2024-03-23T05:11:17;14.52;;;4.65;;
14080;SDS011;7116;52.152;5.392;2024-03-23T05:13:50;13.57;;;4.43;;
14080;SDS011;7116;52.152;5.392;2024-03-23T05:16:18;12.02;;;4.45;;
14080;SDS011;7116;52.152;5.392;2024-03-23T05:18:50;10.68;;;4.30;;
14080;SDS011;7116;52.152;5.392;2024-03-23T05:21:15;12.43;;;4.68;;
14080;SDS011;7116;52.152;5.392;2024-03-23T05:23:41;12.05;;;3.95;;
14080;SDS011;7116;52.152;5.392;2024-03-23T05:26:08;10.67;;;3.40;;
14080;SDS011;7116;52.152;5.392;2024-03-23T05:28:33;11.82;;;4.30;;
14080;SDS011;7116;52.152;5.392;2024-03-23T05:30:59;8.73;;;3.53;;
14080;SDS011;7116;52.152;5.392;2024-03-23T05:33:24;10.83;;;4.23;;
14080;SDS011;7116;52.152;5.392;2024-03-23T05:35:56;13.05;;;3.70;;
14080;SDS011;7116;52.152;5.392;2024-03-23T05:38:24;15.13;;;4.00;;
14080;SDS011;7116;52.152;5.392;2024-03-23T05:40:56;11.33;;;3.80;;
14080;SDS011;7116;52.152;5.392;2024-03-23T05:43:22;13.50;;;4.00;;
14080;SDS011;7116;52.152;5.392;2024-03-23T05:45:54;7.63;;;3.10;;
14080;SDS011;7116;52.152;5.392;2024-03-23T05:48:19;10.38;;;3.78;;
14080;SDS011;7116;52.152;5.392;2024-03-23T05:50:46;15.67;;;3.50;;
14080;SDS011;7116;52.152;5.392;2024-03-23T05:53:12;10.70;;;4.32;;
14080;SDS011;7116;52.152;5.392;2024-03-23T05:55:38;8.75;;;3.72;;
14080;SDS011;7116;52.152;5.392;2024-03-23T05:58:04;12.68;;;3.53;;
14080;SDS011;7116;52.152;5.392;2024-03-23T06:00:29;14.20;;;4.28;;
14080;SDS011;7116;52.152;5.392;2024-03-23T06:02:54;9.37;;;3.50;;
14080;SDS011;7116;52.152;5.392;2024-03-23T06:05:20;9.47;;;3.30;;
14080;SDS011;7116;52.152;5.392;2024-03-23T06:07:45;11.40;;;3.90;;
14080;SDS011;7116;52.152;5.392;2024-03-23T06:10:10;14.30;;;4.30;;
14080;SDS011;7116;52.152;5.392;2024-03-23T06:12:36;12.73;;;3.88;;
14080;SDS011;7116;52.152;5.392;2024-03-23T06:15:04;14.23;;;4.25;;
14080;SDS011;7116;52.152;5.392;2024-03-23T06:17:30;10.13;;;3.50;;
14080;SDS011;7116;52.152;5.392;2024-03-23T06:19:55;13.47;;;3.30;;
14080;SDS011;7116;52.152;5.392;2024-03-23T06:22:21;13.97;;;3.73;;
14080;SDS011;7116;52.152;5.392;2024-03-23T06:24:46;10.23;;;4.07;;
14080;SDS011;7116;52.152;5.392;2024-03-23T06:27:12;9.98;;;3.33;;
14080;SDS011;7116;52.152;5.392;2024-03-23T06:29:37;9.93;;;3.90;;
14080;SDS011;7116;52.152;5.392;2024-03-23T06:32:06;11.88;;;3.40;;
14080;SDS011;7116;52.152;5.392;2024-03-23T06:34:33;17.20;;;4.13;;
14080;SDS011;7116;52.152;5.392;2024-03-23T06:36:58;10.05;;;3.47;;
14080;SDS011;7116;52.152;5.392;2024-03-23T06:39:24;15.00;;;3.57;;
14080;SDS011;7116;52.152;5.392;2024-03-23T06:41:53;13.07;;;3.20;;
14080;SDS011;7116;52.152;5.392;2024-03-23T06:44:19;11.07;;;4.07;;
14080;SDS011;7116;52.152;5.392;2024-03-23T06:46:45;14.53;;;3.47;;
14080;SDS011;7116;52.152;5.392;2024-03-23T06:49:10;8.52;;;4.30;;
14080;SDS011;7116;52.152;5.392;2024-03-23T06:51:36;12.52;;;3.15;;
14080;SDS011;7116;52.152;5.392;2024-03-23T06:54:03;16.15;;;4.10;;
14080;SDS011;7116;52.152;5.392;2024-03-23T06:56:28;11.52;;;3.03;;
14080;SDS011;7116;52.152;5.392;2024-03-23T06:58:54;11.53;;;4.13;;
14080;SDS011;7116;52.152;5.392;2024-03-23T07:01:19;14.20;;;3.35;;
14080;SDS011;7116;52.152;5.392;2024-03-23T07:03:45;12.37;;;3.57;;
14080;SDS011;7116;52.152;5.392;2024-03-23T07:06:10;12.57;;;3.30;;
14080;SDS011;7116;52.152;5.392;2024-03-23T07:08:36;10.98;;;3.90;;
14080;SDS011;7116;52.152;5.392;2024-03-23T07:11:01;6.60;;;2.87;;
14080;SDS011;7116;52.152;5.392;2024-03-23T07:13:27;11.73;;;3.30;;
14080;SDS011;7116;52.152;5.392;2024-03-23T07:15:53;9.30;;;3.37;;
14080;SDS011;7116;52.152;5.392;2024-03-23T07:18:20;9.30;;;3.15;;
14080;SDS011;7116;52.152;5.392;2024-03-23T07:20:53;7.95;;;3.13;;
14080;SDS011;7116;52.152;5.392;2024-03-23T07:23:22;13.17;;;3.73;;
14080;SDS011;7116;52.152;5.392;2024-03-23T07:26:04;8.07;;;2.78;;
14080;SDS011;7116;52.152;5.392;2024-03-23T07:28:30;10.30;;;3.33;;
14080;SDS011;7116;52.152;5.392;2024-03-23T07:31:04;12.02;;;3.35;;
14080;SDS011;7116;52.152;5.392;2024-03-23T07:33:30;9.68;;;3.20;;
14080;SDS011;7116;52.152;5.392;2024-03-23T07:35:56;11.37;;;3.40;;
14080;SDS011;7116;52.152;5.392;2024-03-23T07:38:21;11.23;;;3.17;;
14080;SDS011;7116;52.152;5.392;2024-03-23T07:40:47;11.40;;;2.90;;
14080;SDS011;7116;52.152;5.392;2024-03-23T07:43:15;7.90;;;3.22;;
14080;SDS011;7116;52.152;5.392;2024-03-23T07:45:41;9.67;;;3.17;;
14080;SDS011;7116;52.152;5.392;2024-03-23T07:48:06;9.13;;;3.30;;
14080;SDS011;7116;52.152;5.392;2024-03-23T07:50:32;9.77;;;3.20;;
14080;SDS011;7116;52.152;5.392;2024-03-23T07:52:57;13.77;;;3.23;;
14080;SDS011;7116;52.152;5.392;2024-03-23T07:55:22;11.10;;;3.97;;
14080;SDS011;7116;52.152;5.392;2024-03-23T07:57:47;10.27;;;3.17;;
14080;SDS011;7116;52.152;5.392;2024-03-23T08:00:13;9.23;;;2.83;;
14080;SDS011;7116;52.152;5.392;2024-03-23T08:02:39;8.83;;;2.90;;
14080;SDS011;7116;52.152;5.392;2024-03-23T08:05:04;10.93;;;3.27;;
14080;SDS011;7116;52.152;5.392;2024-03-23T08:07:30;15.80;;;3.08;;
14080;SDS011;7116;52.152;5.392;2024-03-23T08:09:55;11.20;;;3.53;;
14080;SDS011;7116;52.152;5.392;2024-03-23T08:12:20;8.13;;;3.33;;
14080;SDS011;7116;52.152;5.392;2024-03-23T08:14:46;11.93;;;3.60;;
14080;SDS011;7116;52.152;5.392;2024-03-23T08:17:11;15.13;;;3.37;;
14080;SDS011;7116;52.152;5.392;2024-03-23T08:19:36;9.30;;;3.37;;
14080;SDS011;7116;52.152;5.392;2024-03-23T08:22:05;9.73;;;3.17;;
14080;SDS011;7116;52.152;5.392;2024-03-23T08:24:34;10.30;;;3.70;;
14080;SDS011;7116;52.152;5.392;2024-03-23T08:26:59;10.50;;;3.17;;
14080;SDS011;7116;52.152;5.392;2024-03-23T08:29:25;12.63;;;3.47;;
14080;SDS011;7116;52.152;5.392;2024-03-23T08:31:55;9.02;;;3.13;;
14080;SDS011;7116;52.152;5.392;2024-03-23T08:34:20;8.07;;;3.10;;
14080;SDS011;7116;52.152;5.392;2024-03-23T08:36:46;14.60;;;3.67;;
14080;SDS011;7116;52.152;5.392;2024-03-23T08:39:14;8.40;;;3.78;;
14080;SDS011;7116;52.152;5.392;2024-03-23T08:41:42;7.17;;;2.47;;
14080;SDS011;7116;52.152;5.392;2024-03-23T08:44:11;11.25;;;3.67;;
14080;SDS011;7116;52.152;5.392;2024-03-23T08:46:37;9.77;;;3.03;;
14080;SDS011;7116;52.152;5.392;2024-03-23T08:49:02;11.13;;;4.03;;
14080;SDS011;7116;52.152;5.392;2024-03-23T08:51:27;10.17;;;2.63;;
14080;SDS011;7116;52.152;5.392;2024-03-23T08:53:52;11.37;;;3.80;;
14080;SDS011;7116;52.152;5.392;2024-03-23T08:56:18;8.73;;;3.00;;
14080;SDS011;7116;52.152;5.392;2024-03-23T08:58:45;10.07;;;2.60;;
14080;SDS011;7116;52.152;5.392;2024-03-23T09:01:11;14.60;;;2.90;;
14080;SDS011;7116;52.152;5.392;2024-03-23T09:03:39;5.88;;;2.60;;
14080;SDS011;7116;52.152;5.392;2024-03-23T09:06:08;9.27;;;3.00;;
14080;SDS011;7116;52.152;5.392;2024-03-23T09:08:34;9.63;;;3.38;;
14080;SDS011;7116;52.152;5.392;2024-03-23T09:11:04;8.88;;;2.90;;
14080;SDS011;7116;52.152;5.392;2024-03-23T09:13:31;7.53;;;2.70;;
14080;SDS011;7116;52.152;5.392;2024-03-23T09:15:57;6.47;;;2.40;;
14080;SDS011;7116;52.152;5.392;2024-03-23T09:18:22;7.72;;;2.83;;
14080;SDS011;7116;52.152;5.392;2024-03-23T09:20:49;7.65;;;2.65;;
14080;SDS011;7116;52.152;5.392;2024-03-23T09:23:14;7.67;;;2.27;;
14080;SDS011;7116;52.152;5.392;2024-03-23T09:25:39;9.25;;;2.78;;
14080;SDS011;7116;52.152;5.392;2024-03-23T09:28:08;6.83;;;2.40;;
14080;SDS011;7116;52.152;5.392;2024-03-23T09:30:34;6.57;;;2.92;;
14080;SDS011;7116;52.152;5.392;2024-03-23T09:32:59;9.67;;;2.97;;
14080;SDS011;7116;52.152;5.392;2024-03-23T09:35:25;12.55;;;3.00;;
14080;SDS011;7116;52.152;5.392;2024-03-23T09:37:50;8.50;;;2.80;;
14080;SDS011;7116;52.152;5.392;2024-03-23T09:40:16;6.65;;;2.75;;
14080;SDS011;7116;52.152;5.392;2024-03-23T09:42:41;9.20;;;2.50;;
14080;SDS011;7116;52.152;5.392;2024-03-23T09:45:16;12.05;;;3.45;;
14080;SDS011;7116;52.152;5.392;2024-03-23T09:47:42;8.43;;;3.20;;
14080;SDS011;7116;52.152;5.392;2024-03-23T09:50:08;7.75;;;2.50;;
14080;SDS011;7116;52.152;5.392;2024-03-23T09:52:34;11.85;;;2.92;;
14080;SDS011;7116;52.152;5.392;2024-03-23T09:55:03;11.57;;;3.33;;
14080;SDS011;7116;52.152;5.392;2024-03-23T09:57:29;6.47;;;2.72;;
14080;SDS011;7116;52.152;5.392;2024-03-23T09:59:54;9.77;;;3.23;;
14080;SDS011;7116;52.152;5.392;2024-03-23T10:02:20;10.30;;;2.80;;
14080;SDS011;7116;52.152;5.392;2024-03-23T10:04:46;11.07;;;2.50;;
14080;SDS011;7116;52.152;5.392;2024-03-23T10:07:12;8.10;;;3.10;;
14080;SDS011;7116;52.152;5.392;2024-03-23T10:09:38;8.00;;;3.30;;
14080;SDS011;7116;52.152;5.392;2024-03-23T10:12:10;9.53;;;2.90;;
14080;SDS011;7116;52.152;5.392;2024-03-23T10:14:42;11.48;;;5.28;;
14080;SDS011;7116;52.152;5.392;2024-03-23T10:17:18;10.18;;;2.95;;
14080;SDS011;7116;52.152;5.392;2024-03-23T10:19:49;8.82;;;3.22;;
14080;SDS011;7116;52.152;5.392;2024-03-23T10:22:19;8.88;;;3.10;;
14080;SDS011;7116;52.152;5.392;2024-03-23T10:24:44;10.40;;;3.47;;
14080;SDS011;7116;52.152;5.392;2024-03-23T10:27:17;10.55;;;3.03;;
14080;SDS011;7116;52.152;5.392;2024-03-23T10:29:47;6.50;;;3.25;;
14080;SDS011;7116;52.152;5.392;2024-03-23T10:32:14;14.63;;;3.03;;
14080;SDS011;7116;52.152;5.392;2024-03-23T10:34:40;9.02;;;3.55;;
14080;SDS011;7116;52.152;5.392;2024-03-23T10:37:06;4.97;;;2.43;;
14080;SDS011;7116;52.152;5.392;2024-03-23T10:39:35;6.10;;;2.38;;
14080;SDS011;7116;52.152;5.392;2024-03-23T10:42:04;10.55;;;2.97;;
14080;SDS011;7116;52.152;5.392;2024-03-23T10:44:30;7.78;;;2.75;;
14080;SDS011;7116;52.152;5.392;2024-03-23T10:46:59;10.33;;;2.83;;
14080;SDS011;7116;52.152;5.392;2024-03-23T10:49:31;9.90;;;3.45;;
14080;SDS011;7116;52.152;5.392;2024-03-23T10:52:01;9.13;;;3.03;;
14080;SDS011;7116;52.152;5.392;2024-03-23T10:54:27;8.75;;;3.00;;
14080;SDS011;7116;52.152;5.392;2024-03-23T10:57:02;7.30;;;2.50;;
14080;SDS011;7116;52.152;5.392;2024-03-23T10:59:29;12.13;;;3.97;;
14080;SDS011;7116;52.152;5.392;2024-03-23T11:01:58;6.40;;;1.95;;
14080;SDS011;7116;52.152;5.392;2024-03-23T11:04:30;7.95;;;3.15;;
14080;SDS011;7116;52.152;5.392;2024-03-23T11:06:56;7.70;;;2.40;;
14080;SDS011;7116;52.152;5.392;2024-03-23T11:12:48;6.63;;;2.38;;
14080;SDS011;7116;52.152;5.392;2024-03-23T11:17:22;9.40;;;2.90;;
14080;SDS011;7116;52.152;5.392;2024-03-23T11:20:00;8.63;;;2.80;;
14080;SDS011;7116;52.152;5.392;2024-03-23T11:22:45;9.32;;;2.67;;
14080;SDS011;7116;52.152;5.392;2024-03-23T11:25:16;9.75;;;2.53;;
14080;SDS011;7116;52.152;5.392;2024-03-23T11:27:42;8.35;;;3.35;;
14080;SDS011;7116;52.152;5.392;2024-03-23T11:30:11;7.27;;;2.40;;
14080;SDS011;7116;52.152;5.392;2024-03-23T11:32:37;11.57;;;3.03;;
14080;SDS011;7116;52.152;5.392;2024-03-23T11:35:03;8.45;;;3.38;;
14080;SDS011;7116;52.152;5.392;2024-03-23T11:37:28;9.67;;;2.83;;
14080;SDS011;7116;52.152;5.392;2024-03-23T11:39:53;11.63;;;2.53;;
14080;SDS011;7116;52.152;5.392;2024-03-23T11:42:19;11.87;;;3.07;;
14080;SDS011;7116;52.152;5.392;2024-03-23T11:44:46;9.52;;;2.80;;
14080;SDS011;7116;52.152;5.392;2024-03-23T11:47:12;9.82;;;2.80;;
14080;SDS011;7116;52.152;5.392;2024-03-23T11:49:38;5.73;;;3.13;;
14080;SDS011;7116;52.152;5.392;2024-03-23T11:52:08;8.38;;;3.20;;
14080;SDS011;7116;52.152;5.392;2024-03-23T11:54:34;11.70;;;3.00;;
14080;SDS011;7116;52.152;5.392;2024-03-23T11:57:00;6.13;;;2.42;;
14080;SDS011;7116;52.152;5.392;2024-03-23T11:59:35;7.00;;;2.50;;
14080;SDS011;7116;52.152;5.392;2024-03-23T12:02:07;7.32;;;2.67;;
14080;SDS011;7116;52.152;5.392;2024-03-23T12:04:37;8.30;;;2.80;;
14080;SDS011;7116;52.152;5.392;2024-03-23T12:09:35;9.05;;;3.33;;
14080;SDS011;7116;52.152;5.392;2024-03-23T12:12:16;9.47;;;2.90;;
14080;SDS011;7116;52.152;5.392;2024-03-23T12:14:43;8.73;;;3.20;;
14080;SDS011;7116;52.152;5.392;2024-03-23T12:17:12;9.43;;;3.05;;
14080;SDS011;7116;52.152;5.392;2024-03-23T12:19:43;9.95;;;3.47;;
14080;SDS011;7116;52.152;5.392;2024-03-23T12:22:10;10.95;;;2.88;;
14080;SDS011;7116;52.152;5.392;2024-03-23T12:24:35;9.53;;;2.67;;
14080;SDS011;7116;52.152;5.392;2024-03-23T12:27:04;7.53;;;2.67;;
14080;SDS011;7116;52.152;5.392;2024-03-23T12:29:32;6.40;;;3.60;;
14080;SDS011;7116;52.152;5.392;2024-03-23T12:31:59;7.68;;;3.13;;
14080;SDS011;7116;52.152;5.392;2024-03-23T12:34:26;15.73;;;3.30;;
14080;SDS011;7116;52.152;5.392;2024-03-23T12:36:52;10.27;;;3.08;;
14080;SDS011;7116;52.152;5.392;2024-03-23T12:39:20;11.47;;;3.40;;
14080;SDS011;7116;52.152;5.392;2024-03-23T12:41:46;6.97;;;2.78;;
14080;SDS011;7116;52.152;5.392;2024-03-23T12:44:12;7.43;;;3.50;;
14080;SDS011;7116;52.152;5.392;2024-03-23T12:46:38;9.23;;;2.70;;
14080;SDS011;7116;52.152;5.392;2024-03-23T12:49:13;9.27;;;3.50;;
14080;SDS011;7116;52.152;5.392;2024-03-23T12:51:39;9.13;;;3.17;;
14080;SDS011;7116;52.152;5.392;2024-03-23T12:54:04;10.50;;;3.40;;
14080;SDS011;7116;52.152;5.392;2024-03-23T12:56:30;14.00;;;3.40;;
14080;SDS011;7116;52.152;5.392;2024-03-23T12:58:57;8.33;;;3.30;;
14080;SDS011;7116;52.152;5.392;2024-03-23T13:01:23;7.85;;;2.53;;
14080;SDS011;7116;52.152;5.392;2024-03-23T13:03:49;12.15;;;3.20;;
14080;SDS011;7116;52.152;5.392;2024-03-23T13:06:14;8.70;;;2.88;;
14080;SDS011;7116;52.152;5.392;2024-03-23T13:08:40;7.93;;;3.00;;
14080;SDS011;7116;52.152;5.392;2024-03-23T13:11:06;8.33;;;2.57;;
14080;SDS011;7116;52.152;5.392;2024-03-23T13:13:33;8.60;;;3.47;;
14080;SDS011;7116;52.152;5.392;2024-03-23T13:15:59;7.10;;;2.80;;
14080;SDS011;7116;52.152;5.392;2024-03-23T13:18:24;7.43;;;2.70;;
14080;SDS011;7116;52.152;5.392;2024-03-23T13:20:50;14.57;;;3.47;;
14080;SDS011;7116;52.152;5.392;2024-03-23T13:23:15;8.37;;;3.13;;
14080;SDS011;7116;52.152;5.392;2024-03-23T13:25:54;10.75;;;3.13;;
14080;SDS011;7116;52.152;5.392;2024-03-23T13:28:20;9.70;;;2.50;;
14080;SDS011;7116;52.152;5.392;2024-03-23T13:30:54;4.77;;;2.83;;
14080;SDS011;7116;52.152;5.392;2024-03-23T13:33:20;4.72;;;2.45;;
14080;SDS011;7116;52.152;5.392;2024-03-23T13:35:51;6.05;;;1.88;;
14080;SDS011;7116;52.152;5.392;2024-03-23T13:38:23;3.07;;;2.00;;
14080;SDS011;7116;52.152;5.392;2024-03-23T13:43:21;5.13;;;2.30;;
14080;SDS011;7116;52.152;5.392;2024-03-23T13:45:47;4.97;;;2.00;;
14080;SDS011;7116;52.152;5.392;2024-03-23T13:48:16;5.40;;;2.40;;
14080;SDS011;7116;52.152;5.392;2024-03-23T13:50:43;4.13;;;2.30;;
14080;SDS011;7116;52.152;5.392;2024-03-23T13:53:08;6.87;;;2.60;;
14080;SDS011;7116;52.152;5.392;2024-03-23T13:55:34;9.23;;;2.30;;
14080;SDS011;7116;52.152;5.392;2024-03-23T13:57:59;9.60;;;2.60;;
14080;SDS011;7116;52.152;5.392;2024-03-23T14:00:25;11.17;;;2.83;;
14080;SDS011;7116;52.152;5.392;2024-03-23T14:02:51;7.47;;;2.97;;
14080;SDS011;7116;52.152;5.392;2024-03-23T14:05:16;5.70;;;2.43;;
14080;SDS011;7116;52.152;5.392;2024-03-23T14:07:42;4.07;;;2.77;;
14080;SDS011;7116;52.152;5.392;2024-03-23T14:10:07;6.20;;;2.53;;
14080;SDS011;7116;52.152;5.392;2024-03-23T14:12:35;9.63;;;2.47;;
14080;SDS011;7116;52.152;5.392;2024-03-23T14:15:01;8.80;;;2.67;;
14080;SDS011;7116;52.152;5.392;2024-03-23T14:17:28;6.87;;;2.63;;
14080;SDS011;7116;52.152;5.392;2024-03-23T14:19:53;8.40;;;2.97;;
14080;SDS011;7116;52.152;5.392;2024-03-23T14:22:19;13.23;;;3.70;;
14080;SDS011;7116;52.152;5.392;2024-03-23T14:24:46;9.55;;;3.00;;
14080;SDS011;7116;52.152;5.392;2024-03-23T14:27:12;8.97;;;2.60;;
14080;SDS011;7116;52.152;5.392;2024-03-23T14:29:37;11.27;;;3.70;;
14080;SDS011;7116;52.152;5.392;2024-03-23T14:32:03;6.15;;;2.33;;
14080;SDS011;7116;52.152;5.392;2024-03-23T14:34:28;13.33;;;4.03;;
14080;SDS011;7116;52.152;5.392;2024-03-23T14:36:54;10.55;;;3.28;;
14080;SDS011;7116;52.152;5.392;2024-03-23T14:39:25;11.45;;;4.07;;
14080;SDS011;7116;52.152;5.392;2024-03-23T14:41:51;11.98;;;3.17;;
14080;SDS011;7116;52.152;5.392;2024-03-23T14:44:20;5.88;;;3.47;;
14080;SDS011;7116;52.152;5.392;2024-03-23T14:46:45;8.77;;;2.65;;
14080;SDS011;7116;52.152;5.392;2024-03-23T14:49:14;7.18;;;3.08;;
14080;SDS011;7116;52.152;5.392;2024-03-23T14:51:41;9.40;;;2.50;;
14080;SDS011;7116;52.152;5.392;2024-03-23T14:54:07;7.87;;;2.83;;
14080;SDS011;7116;52.152;5.392;2024-03-23T14:56:36;7.20;;;2.60;;
14080;SDS011;7116;52.152;5.392;2024-03-23T14:59:03;5.78;;;3.40;;
14080;SDS011;7116;52.152;5.392;2024-03-23T15:01:28;8.57;;;2.53;;
14080;SDS011;7116;52.152;5.392;2024-03-23T15:03:54;12.88;;;3.40;;
14080;SDS011;7116;52.152;5.392;2024-03-23T15:06:19;9.32;;;3.15;;
14080;SDS011;7116;52.152;5.392;2024-03-23T15:08:45;9.83;;;3.13;;
14080;SDS011;7116;52.152;5.392;2024-03-23T15:11:10;9.20;;;2.70;;
14080;SDS011;7116;52.152;5.392;2024-03-23T15:13:36;6.95;;;2.70;;
14080;SDS011;7116;52.152;5.392;2024-03-23T15:16:02;8.27;;;3.05;;
14080;SDS011;7116;52.152;5.392;2024-03-23T15:18:31;5.78;;;2.40;;
14080;SDS011;7116;52.152;5.392;2024-03-23T15:20:58;8.32;;;2.47;;
14080;SDS011;7116;52.152;5.392;2024-03-23T15:23:27;9.68;;;2.45;;
14080;SDS011;7116;52.152;5.392;2024-03-23T15:25:56;9.43;;;2.65;;
14080;SDS011;7116;52.152;5.392;2024-03-23T15:28:25;7.88;;;2.90;;
14080;SDS011;7116;52.152;5.392;2024-03-23T15:31:03;10.00;;;2.83;;
14080;SDS011;7116;52.152;5.392;2024-03-23T15:33:29;9.07;;;2.60;;
14080;SDS011;7116;52.152;5.392;2024-03-23T15:35:58;8.67;;;2.57;;
14080;SDS011;7116;52.152;5.392;2024-03-23T15:38:23;10.35;;;2.90;;
14080;SDS011;7116;52.152;5.392;2024-03-23T15:40:52;7.60;;;3.20;;
14080;SDS011;7116;52.152;5.392;2024-03-23T15:43:18;7.55;;;2.40;;
14080;SDS011;7116;52.152;5.392;2024-03-23T15:45:44;8.73;;;2.53;;
14080;SDS011;7116;52.152;5.392;2024-03-23T15:48:09;7.17;;;2.70;;
14080;SDS011;7116;52.152;5.392;2024-03-23T15:50:35;8.80;;;2.70;;
14080;SDS011;7116;52.152;5.392;2024-03-23T15:53:00;9.10;;;2.43;;
14080;SDS011;7116;52.152;5.392;2024-03-23T15:55:25;12.13;;;2.63;;